Time;durP1;ratioP1;P1;durP2;ratioP2;P2;SDS_P1;SDS_P2;PMS_P1;PMS_P2;Temp;Humidity;BMP_temperature;BMP_pressure;BME280_temperature;BME280_humidity;BME280_pressure;Samples;Min_cycle;Max_cycle;Signal;HPM_P1;HPM_P2
2023/08/01 00:01:11;;;;;;;;;;;17.20;99.90;;;;;;5004675;28;20163;-69
2023/08/01 00:03:38;;;;;;;;;;;17.20;99.90;;;;;;5004723;28;19921;-69
2023/08/01 00:06:05;;;;;;;;;;;17.20;99.90;;;;;;5004960;28;19953;-69
2023/08/01 00:08:31;;;;;;;;;;;17.20;99.90;;;;;;5004135;28;19984;-69
2023/08/01 00:10:58;;;;;;;;;;;17.10;99.90;;;;;;5004334;28;19921;-69
2023/08/01 00:13:24;;;;;;;;;;;17.20;99.90;;;;;;5004275;28;19921;-69
2023/08/01 00:15:52;;;;;;;;;;;17.20;99.90;;;;;;5004220;28;19988;-69
2023/08/01 00:18:19;;;;;;;;;;;17.10;99.90;;;;;;5004920;28;19953;-69
2023/08/01 00:20:45;;;;;;;;;;;17.10;99.90;;;;;;5004180;28;19928;-69
2023/08/01 00:23:12;;;;;;;;;;;17.10;99.90;;;;;;5004732;28;19921;-69
2023/08/01 00:25:39;;;;;;;;;;;17.00;99.90;;;;;;5004895;28;19921;-69
2023/08/01 00:28:05;;;;;;;;;;;17.10;99.90;;;;;;5004409;28;19922;-71
2023/08/01 00:30:32;;;;;;;;;;;17.10;99.90;;;;;;5004017;28;19921;-69
2023/08/01 00:33:00;;;;;;;;;;;17.10;99.90;;;;;;5004579;28;19985;-69
2023/08/01 00:35:27;;;;;;;;;;;17.10;99.90;;;;;;5004505;28;19964;-69
2023/08/01 00:37:53;;;;;;;;;;;17.10;99.90;;;;;;5004199;28;19921;-69
2023/08/01 00:40:20;;;;;;;;;;;17.10;99.90;;;;;;5004032;28;20202;-69
2023/08/01 00:42:47;;;;;;;;;;;17.10;99.90;;;;;;5004115;28;20146;-69
2023/08/01 00:45:13;;;;;;;;;;;17.10;99.90;;;;;;5003913;28;19989;-69
2023/08/01 00:47:42;;;;;;;;;;;17.10;99.90;;;;;;5001826;28;20095;-69
2023/08/01 00:50:10;;;;;;;;;;;17.10;99.90;;;;;;5003825;28;19957;-69
2023/08/01 00:52:37;;;;;;;;;;;17.00;99.90;;;;;;5004511;28;20157;-69
2023/08/01 00:55:03;;;;;;;;;;;17.00;99.90;;;;;;5004211;28;19989;-69
2023/08/01 00:57:32;;;;;;;;;;;17.00;99.90;;;;;;5002582;28;20001;-69
2023/08/01 00:59:59;;;;;;;;;;;17.00;99.90;;;;;;5003598;28;19929;-69
2023/08/01 01:02:26;;;;;;;;;;;17.00;99.90;;;;;;5004178;28;19957;-69
2023/08/01 01:04:52;;;;;;;;;;;17.00;99.90;;;;;;4984562;28;20273;-69
2023/08/01 01:07:22;;;;;;;;;;;17.00;99.90;;;;;;4984630;28;20001;-69
2023/08/01 01:09:48;;;;;;;;;;;17.00;99.90;;;;;;4984379;28;19953;-69
2023/08/01 01:12:15;;;;;;;;;;;16.90;99.90;;;;;;4984566;28;20237;-70
2023/08/01 01:14:41;;;;;;;;;;;16.90;99.90;;;;;;4984620;28;19928;-69
2023/08/01 01:17:08;;;;;;;;;;;16.90;99.90;;;;;;4984576;28;20269;-69
2023/08/01 01:19:35;;;;;;;;;;;16.90;99.90;;;;;;4984231;28;19957;-69
2023/08/01 01:22:05;;;;;;;;;;;16.90;99.90;;;;;;4984739;28;19985;-69
2023/08/01 01:24:33;;;;;;;;;;;16.90;99.90;;;;;;4984456;28;19926;-69
2023/08/01 01:27:00;;;;;;;;;;;16.90;99.90;;;;;;4988292;28;19923;-69
2023/08/01 01:29:27;;;;;;;;;;;16.90;99.90;;;;;;4988216;28;19969;-69
2023/08/01 01:31:54;;;;;;;;;;;16.90;99.90;;;;;;4988282;28;19985;-70
2023/08/01 01:34:20;;;;;;;;;;;16.80;99.90;;;;;;4988391;28;19922;-69
2023/08/01 01:36:47;;;;;;;;;;;16.80;99.90;;;;;;4988288;28;19985;-69
2023/08/01 01:39:15;;;;;;;;;;;16.80;99.90;;;;;;4987983;28;19922;-69
2023/08/01 01:41:42;;;;;;;;;;;16.80;99.90;;;;;;4988097;28;19985;-69
2023/08/01 01:44:08;;;;;;;;;;;16.80;99.90;;;;;;4988242;28;20010;-68
2023/08/01 01:46:35;;;;;;;;;;;16.90;99.90;;;;;;4988266;28;19922;-69
2023/08/01 01:49:02;;;;;;;;;;;16.90;99.90;;;;;;4987758;28;20005;-70
2023/08/01 01:51:29;;;;;;;;;;;16.80;99.90;;;;;;4987812;28;19926;-69
2023/08/01 01:53:55;;;;;;;;;;;16.80;99.90;;;;;;4988114;28;19989;-69
2023/08/01 01:56:23;;;;;;;;;;;16.80;99.90;;;;;;4987512;28;19922;-70
2023/08/01 01:58:50;;;;;;;;;;;16.80;99.90;;;;;;4987987;28;19993;-70
2023/08/01 02:01:16;;;;;;;;;;;16.80;99.90;;;;;;4986917;28;20421;-70
2023/08/01 02:03:43;;;;;;;;;;;16.80;99.90;;;;;;4987783;28;19930;-69
2023/08/01 02:06:10;;;;;;;;;;;16.80;99.90;;;;;;4987673;28;20174;-69
2023/08/01 02:08:36;;;;;;;;;;;16.80;99.90;;;;;;4987808;28;19989;-69
2023/08/01 02:11:03;;;;;;;;;;;16.80;99.90;;;;;;5000613;28;20380;-69
2023/08/01 02:13:32;;;;;;;;;;;16.80;99.90;;;;;;5007278;28;19957;-69
2023/08/01 02:15:58;;;;;;;;;;;16.70;99.90;;;;;;5006758;28;19953;-70
2023/08/01 02:18:25;;;;;;;;;;;16.70;99.90;;;;;;5006851;28;20137;-69
2023/08/01 02:20:52;;;;;;;;;;;16.70;99.90;;;;;;5006432;28;19957;-70
2023/08/01 02:23:18;;;;;;;;;;;16.70;99.90;;;;;;4991191;28;20113;-69
2023/08/01 02:25:45;;;;;;;;;;;16.70;99.90;;;;;;4987301;28;19922;-69
2023/08/01 02:28:12;;;;;;;;;;;16.70;99.90;;;;;;4987128;28;20283;-69
2023/08/01 02:30:40;;;;;;;;;;;16.70;99.90;;;;;;4987007;28;20086;-69
2023/08/01 02:33:06;;;;;;;;;;;16.70;99.90;;;;;;4987168;28;19994;-69
2023/08/01 02:35:33;;;;;;;;;;;16.60;99.90;;;;;;4987465;28;19996;-69
2023/08/01 02:38:00;;;;;;;;;;;16.60;99.90;;;;;;4986351;28;19922;-69
2023/08/01 02:40:26;;;;;;;;;;;16.60;99.90;;;;;;4986567;28;19922;-70
2023/08/01 02:42:53;;;;;;;;;;;16.60;99.90;;;;;;4987290;28;19954;-69
2023/08/01 02:45:20;;;;;;;;;;;16.60;99.90;;;;;;4987133;28;19997;-71
2023/08/01 02:47:48;;;;;;;;;;;16.60;99.90;;;;;;4987146;28;19929;-69
2023/08/01 02:50:14;;;;;;;;;;;16.60;99.90;;;;;;4986605;28;20166;-69
2023/08/01 02:52:41;;;;;;;;;;;16.70;99.90;;;;;;4986969;28;19961;-69
2023/08/01 02:55:08;;;;;;;;;;;16.60;99.90;;;;;;4986548;28;19928;-69
2023/08/01 02:57:34;;;;;;;;;;;16.60;99.90;;;;;;4986964;28;19989;-69
2023/08/01 03:00:04;;;;;;;;;;;16.60;99.90;;;;;;4986554;28;19992;-69
2023/08/01 03:02:31;;;;;;;;;;;16.60;99.90;;;;;;4986875;28;20150;-69
2023/08/01 03:04:59;;;;;;;;;;;16.60;99.90;;;;;;4986698;28;19922;-69
2023/08/01 03:07:25;;;;;;;;;;;16.60;99.90;;;;;;4986861;28;20139;-69
2023/08/01 03:09:52;;;;;;;;;;;16.60;99.90;;;;;;4986267;28;20001;-71
2023/08/01 03:12:19;;;;;;;;;;;16.60;99.90;;;;;;4986516;28;19989;-69
2023/08/01 03:14:47;;;;;;;;;;;16.60;99.90;;;;;;4986316;28;19922;-69
2023/08/01 03:17:14;;;;;;;;;;;16.50;99.90;;;;;;4986234;28;19929;-69
2023/08/01 03:19:40;;;;;;;;;;;16.60;99.90;;;;;;4986046;28;19930;-69
2023/08/01 03:22:08;;;;;;;;;;;16.60;99.90;;;;;;4986377;28;19922;-69
2023/08/01 03:24:35;;;;;;;;;;;16.60;99.90;;;;;;4986057;28;20152;-69
2023/08/01 03:27:01;;;;;;;;;;;16.60;99.90;;;;;;4986354;28;19922;-70
2023/08/01 03:29:28;;;;;;;;;;;16.60;99.90;;;;;;4986024;28;19997;-69
2023/08/01 03:31:55;;;;;;;;;;;16.60;99.90;;;;;;4986161;28;20142;-69
2023/08/01 03:34:21;;;;;;;;;;;16.60;99.90;;;;;;4985890;28;19989;-69
2023/08/01 03:36:48;;;;;;;;;;;16.60;99.90;;;;;;4986133;28;19922;-69
2023/08/01 03:39:16;;;;;;;;;;;16.60;99.90;;;;;;4985638;28;19989;-69
2023/08/01 03:41:42;;;;;;;;;;;16.50;99.90;;;;;;4985926;28;19994;-69
2023/08/01 03:44:09;;;;;;;;;;;16.50;99.90;;;;;;4985792;28;19993;-70
2023/08/01 03:46:36;;;;;;;;;;;16.50;99.90;;;;;;4985782;28;19954;-70
2023/08/01 03:49:02;;;;;;;;;;;16.50;99.90;;;;;;4985065;28;19994;-69
2023/08/01 03:51:29;;;;;;;;;;;16.50;99.90;;;;;;4985882;28;19928;-70
2023/08/01 03:53:55;;;;;;;;;;;16.50;99.90;;;;;;4985947;28;19922;-69
2023/08/01 03:56:23;;;;;;;;;;;16.50;99.90;;;;;;4998348;28;19988;-70
2023/08/01 03:58:50;;;;;;;;;;;16.50;99.90;;;;;;5000924;28;19953;-69
2023/08/01 04:01:16;;;;;;;;;;;16.50;99.90;;;;;;4985121;28;19928;-69
2023/08/01 04:03:43;;;;;;;;;;;16.50;99.90;;;;;;4985454;28;19922;-70
2023/08/01 04:06:10;;;;;;;;;;;16.50;99.90;;;;;;4985609;28;19992;-69
2023/08/01 04:08:37;;;;;;;;;;;16.50;99.90;;;;;;4985782;28;20153;-70
2023/08/01 04:11:03;;;;;;;;;;;16.40;99.90;;;;;;4985145;28;19922;-69
2023/08/01 04:13:31;;;;;;;;;;;16.40;99.90;;;;;;4985559;28;20314;-70
2023/08/01 04:15:58;;;;;;;;;;;16.40;99.90;;;;;;4985119;28;19985;-69
2023/08/01 04:18:25;;;;;;;;;;;16.40;99.90;;;;;;4985427;28;20173;-69
2023/08/01 04:20:51;;;;;;;;;;;16.40;99.90;;;;;;4984589;28;20206;-69
2023/08/01 04:23:18;;;;;;;;;;;16.40;99.90;;;;;;4985196;28;19954;-69
2023/08/01 04:25:44;;;;;;;;;;;16.40;99.90;;;;;;4984946;28;20335;-70
2023/08/01 04:28:11;;;;;;;;;;;16.50;99.90;;;;;;4984889;28;19989;-69
2023/08/01 04:30:39;;;;;;;;;;;16.50;99.90;;;;;;4984736;28;19981;-69
2023/08/01 04:33:06;;;;;;;;;;;16.50;99.90;;;;;;4984974;28;19958;-69
2023/08/01 04:35:32;;;;;;;;;;;16.50;99.90;;;;;;4985174;28;19922;-70
2023/08/01 04:37:59;;;;;;;;;;;16.50;99.90;;;;;;4985242;28;20121;-70
2023/08/01 04:40:25;;;;;;;;;;;16.50;99.90;;;;;;4984484;28;19929;-71
2023/08/01 04:42:52;;;;;;;;;;;16.50;99.90;;;;;;4984697;28;20218;-69
2023/08/01 04:45:19;;;;;;;;;;;16.50;99.90;;;;;;4984500;28;19985;-69
2023/08/01 04:47:47;;;;;;;;;;;16.50;99.90;;;;;;4984893;28;19922;-69
2023/08/01 04:50:13;;;;;;;;;;;16.50;99.90;;;;;;4984413;28;20161;-69
2023/08/01 04:52:40;;;;;;;;;;;16.50;99.90;;;;;;4998055;28;19928;-68
2023/08/01 04:55:07;;;;;;;;;;;16.50;99.90;;;;;;5011229;28;19926;-70
2023/08/01 04:57:34;;;;;;;;;;;16.50;99.90;;;;;;4984767;28;19990;-69
2023/08/01 05:00:00;;;;;;;;;;;16.50;99.90;;;;;;4983983;28;20117;-69
2023/08/01 05:02:27;;;;;;;;;;;16.50;99.90;;;;;;4984489;28;19923;-69
2023/08/01 05:04:55;;;;;;;;;;;16.50;99.90;;;;;;4992432;28;20188;-69
2023/08/01 05:07:21;;;;;;;;;;;16.50;99.90;;;;;;5004129;28;19921;-69
2023/08/01 05:09:48;;;;;;;;;;;16.50;99.90;;;;;;5003749;28;19993;-69
2023/08/01 05:12:15;;;;;;;;;;;16.60;99.90;;;;;;5004114;28;19957;-69
2023/08/01 05:14:41;;;;;;;;;;;16.60;99.90;;;;;;5003788;28;19944;-69
2023/08/01 05:17:08;;;;;;;;;;;16.60;99.90;;;;;;5004076;28;19985;-69
2023/08/01 05:19:35;;;;;;;;;;;16.60;99.90;;;;;;5003694;28;19990;-69
2023/08/01 05:22:03;;;;;;;;;;;16.60;99.90;;;;;;5004084;28;19922;-69
2023/08/01 05:24:29;;;;;;;;;;;16.60;99.90;;;;;;5003821;28;20272;-70
2023/08/01 05:26:56;;;;;;;;;;;16.70;99.90;;;;;;5004026;28;19922;-69
2023/08/01 05:29:23;;;;;;;;;;;16.70;99.90;;;;;;5003614;28;19930;-69
2023/08/01 05:31:49;;;;;;;;;;;16.70;99.90;;;;;;5004175;28;19957;-69
2023/08/01 05:34:16;;;;;;;;;;;16.70;99.90;;;;;;5004052;28;20260;-69
2023/08/01 05:36:42;;;;;;;;;;;16.70;99.90;;;;;;5004004;28;19985;-68
2023/08/01 05:39:11;;;;;;;;;;;16.70;99.90;;;;;;5003332;28;20266;-74
2023/08/01 05:41:37;;;;;;;;;;;16.70;99.90;;;;;;5003867;28;19922;-69
2023/08/01 05:44:04;;;;;;;;;;;16.80;99.90;;;;;;5003839;28;20149;-70
2023/08/01 05:46:31;;;;;;;;;;;16.80;99.90;;;;;;5003521;28;20420;-70
2023/08/01 05:48:59;;;;;;;;;;;16.70;99.90;;;;;;5002901;28;19956;-70
2023/08/01 05:51:27;;;;;;;;;;;16.80;99.90;;;;;;5002171;28;19921;-69
2023/08/01 05:53:54;;;;;;;;;;;16.80;99.90;;;;;;5003862;28;19957;-69
2023/08/01 05:56:22;;;;;;;;;;;16.80;99.90;;;;;;4987460;28;19980;-69
2023/08/01 05:58:50;;;;;;;;;;;16.80;99.90;;;;;;4984230;28;19922;-70
2023/08/01 06:01:16;;;;;;;;;;;16.80;99.90;;;;;;4983412;28;20214;-70
2023/08/01 06:03:43;;;;;;;;;;;16.90;99.90;;;;;;4984166;28;19986;-71
2023/08/01 06:06:09;;;;;;;;;;;16.80;99.90;;;;;;4983825;28;19972;-72
2023/08/01 06:08:36;;;;;;;;;;;16.90;99.90;;;;;;4984214;28;19981;-70
2023/08/01 06:11:03;;;;;;;;;;;17.00;99.90;;;;;;4983690;28;20262;-70
2023/08/01 06:13:31;;;;;;;;;;;16.90;99.90;;;;;;4986617;28;19922;-70
2023/08/01 06:15:57;;;;;;;;;;;16.90;99.90;;;;;;4987402;28;19978;-70
2023/08/01 06:18:24;;;;;;;;;;;16.90;99.90;;;;;;4987538;28;19928;-70
2023/08/01 06:20:50;;;;;;;;;;;16.90;99.90;;;;;;4987090;28;19922;-70
2023/08/01 06:23:17;;;;;;;;;;;16.90;99.90;;;;;;4987309;28;20232;-70
2023/08/01 06:25:44;;;;;;;;;;;16.90;99.90;;;;;;4987382;28;19989;-70
2023/08/01 06:28:10;;;;;;;;;;;16.80;99.90;;;;;;4987228;28;19929;-70
2023/08/01 06:30:38;;;;;;;;;;;16.90;99.90;;;;;;4986848;28;19985;-69
2023/08/01 06:33:05;;;;;;;;;;;16.90;99.90;;;;;;4987376;28;19984;-69
2023/08/01 06:35:31;;;;;;;;;;;16.90;99.90;;;;;;4987297;28;20095;-70
2023/08/01 06:37:58;;;;;;;;;;;16.90;99.90;;;;;;4987230;28;19985;-70
2023/08/01 06:40:25;;;;;;;;;;;16.90;99.90;;;;;;4986923;28;20185;-69
2023/08/01 06:42:51;;;;;;;;;;;16.90;99.90;;;;;;4987154;28;19922;-69
2023/08/01 06:45:18;;;;;;;;;;;16.90;99.90;;;;;;4986932;28;19961;-70
2023/08/01 06:47:46;;;;;;;;;;;16.80;99.90;;;;;;4987072;28;19981;-69
2023/08/01 06:50:20;;;;;;;;;;;16.90;99.90;;;;;;4984629;28;19989;-69
2023/08/01 06:52:46;;;;;;;;;;;16.90;99.90;;;;;;4987041;28;19968;-70
2023/08/01 06:55:15;;;;;;;;;;;16.90;99.90;;;;;;4984741;28;19928;-70
2023/08/01 06:57:41;;;;;;;;;;;16.90;99.90;;;;;;4986872;28;19922;-70
2023/08/01 07:00:09;;;;;;;;;;;16.90;99.90;;;;;;4986387;28;20217;-70
2023/08/01 07:02:35;;;;;;;;;;;17.00;99.90;;;;;;4986595;28;19929;-70
2023/08/01 07:05:04;;;;;;;;;;;17.00;99.90;;;;;;4989259;28;19981;-70
2023/08/01 07:07:31;;;;;;;;;;;17.00;99.90;;;;;;5006218;28;19980;-70
2023/08/01 07:09:57;;;;;;;;;;;17.00;99.90;;;;;;4992632;28;19985;-70
2023/08/01 07:12:24;;;;;;;;;;;17.00;99.90;;;;;;4986692;28;19953;-70
2023/08/01 07:14:51;;;;;;;;;;;17.00;99.90;;;;;;4986098;28;20176;-70
2023/08/01 07:17:17;;;;;;;;;;;17.00;99.90;;;;;;4986664;28;19985;-70
2023/08/01 07:19:44;;;;;;;;;;;17.10;99.90;;;;;;4985994;28;19953;-70
2023/08/01 07:22:12;;;;;;;;;;;17.00;99.90;;;;;;4986583;28;19958;-70
2023/08/01 07:24:39;;;;;;;;;;;17.10;99.90;;;;;;4986019;28;20016;-70
2023/08/01 07:27:06;;;;;;;;;;;17.10;99.90;;;;;;5003629;28;19922;-70
2023/08/01 07:29:32;;;;;;;;;;;17.10;99.90;;;;;;5005021;28;20220;-71
2023/08/01 07:31:59;;;;;;;;;;;17.00;99.90;;;;;;5005740;28;19985;-70
2023/08/01 07:34:25;;;;;;;;;;;17.00;99.90;;;;;;5005395;28;19921;-70
2023/08/01 07:36:52;;;;;;;;;;;17.00;99.90;;;;;;5005680;28;19972;-70
2023/08/01 07:39:20;;;;;;;;;;;17.00;99.90;;;;;;5005387;28;19922;-70
2023/08/01 07:41:47;;;;;;;;;;;17.00;99.90;;;;;;5005225;28;20256;-70
2023/08/01 07:44:13;;;;;;;;;;;17.00;99.90;;;;;;5005590;28;19929;-70
2023/08/01 07:46:40;;;;;;;;;;;16.90;99.90;;;;;;5005464;28;19985;-70
2023/08/01 07:49:09;;;;;;;;;;;16.90;99.90;;;;;;5003249;28;19984;-70
2023/08/01 07:51:36;;;;;;;;;;;16.90;99.90;;;;;;5004610;28;19944;-70
2023/08/01 07:54:03;;;;;;;;;;;16.90;99.90;;;;;;5003181;28;20213;-72
2023/08/01 07:56:31;;;;;;;;;;;16.90;99.90;;;;;;5005054;28;19953;-70
2023/08/01 07:58:58;;;;;;;;;;;16.90;99.90;;;;;;5005156;28;19953;-70
2023/08/01 08:01:25;;;;;;;;;;;16.80;99.90;;;;;;5004145;28;19922;-70
2023/08/01 08:03:52;;;;;;;;;;;16.70;99.90;;;;;;5003537;28;19921;-70
2023/08/01 08:06:21;;;;;;;;;;;16.70;99.90;;;;;;5005134;28;19997;-70
2023/08/01 08:08:47;;;;;;;;;;;16.70;99.90;;;;;;5004770;28;20217;-70
2023/08/01 08:11:15;;;;;;;;;;;16.70;99.90;;;;;;5003955;28;19928;-70
2023/08/01 08:13:43;;;;;;;;;;;16.60;99.90;;;;;;5004987;28;19922;-70
2023/08/01 08:16:10;;;;;;;;;;;16.50;99.90;;;;;;5004530;28;19985;-71
2023/08/01 08:18:37;;;;;;;;;;;16.50;99.90;;;;;;5004795;28;19988;-70
2023/08/01 08:21:03;;;;;;;;;;;16.50;99.90;;;;;;5004278;28;20085;-70
2023/08/01 08:23:30;;;;;;;;;;;16.40;99.90;;;;;;5004898;28;19993;-72
2023/08/01 08:25:56;;;;;;;;;;;16.40;99.90;;;;;;5004396;28;19996;-70
2023/08/01 08:28:29;;;;;;;;;;;16.40;99.90;;;;;;5004606;28;19960;-73
2023/08/01 08:31:01;;;;;;;;;;;16.30;99.90;;;;;;4997081;28;19933;-72
2023/08/01 08:33:28;;;;;;;;;;;16.30;99.90;;;;;;4984838;28;20186;-71
2023/08/01 08:35:54;;;;;;;;;;;16.30;99.90;;;;;;4984532;28;19922;-71
2023/08/01 08:38:21;;;;;;;;;;;16.30;99.90;;;;;;4984814;28;19989;-71
2023/08/01 08:40:53;;;;;;;;;;;16.30;99.90;;;;;;4981806;28;20277;-71
2023/08/01 08:43:20;;;;;;;;;;;16.20;99.90;;;;;;4985151;28;19953;-71
2023/08/01 08:45:58;;;;;;;;;;;16.20;99.90;;;;;;4982397;28;19985;-70
2023/08/01 08:48:26;;;;;;;;;;;16.20;99.90;;;;;;4985050;28;20027;-71
2023/08/01 08:51:01;;;;;;;;;;;16.30;99.90;;;;;;4982983;28;19985;-71
2023/08/01 08:53:27;;;;;;;;;;;16.30;99.90;;;;;;4985054;28;19989;-71
2023/08/01 08:55:55;;;;;;;;;;;16.30;99.90;;;;;;4982616;28;19985;-71
2023/08/01 08:58:23;;;;;;;;;;;16.30;99.90;;;;;;4985239;28;19989;-71
2023/08/01 09:00:52;;;;;;;;;;;16.40;99.90;;;;;;4981964;28;20001;-71
2023/08/01 09:03:19;;;;;;;;;;;16.40;99.90;;;;;;5003931;28;19922;-71
2023/08/01 09:05:49;;;;;;;;;;;16.40;99.90;;;;;;5004186;28;19921;-71
2023/08/01 09:08:18;;;;;;;;;;;16.50;99.90;;;;;;5004080;28;19953;-71
2023/08/01 09:10:45;;;;;;;;;;;16.60;99.90;;;;;;5001255;28;19993;-70
2023/08/01 09:13:17;;;;;;;;;;;16.60;99.90;;;;;;5002019;28;19993;-71
2023/08/01 09:15:44;;;;;;;;;;;16.60;99.90;;;;;;5003948;28;19922;-71
2023/08/01 09:18:10;;;;;;;;;;;16.60;99.90;;;;;;5003991;28;20280;-71
2023/08/01 09:20:40;;;;;;;;;;;16.70;99.90;;;;;;5003559;28;19921;-71
2023/08/01 09:23:10;;;;;;;;;;;16.70;99.90;;;;;;4998240;28;19995;-71
2023/08/01 09:25:37;;;;;;;;;;;16.70;99.90;;;;;;5004077;28;19921;-70
2023/08/01 09:28:15;;;;;;;;;;;16.70;99.90;;;;;;5003980;28;19922;-71
2023/08/01 09:30:46;;;;;;;;;;;16.60;99.90;;;;;;5003335;28;19922;-71
2023/08/01 09:33:12;;;;;;;;;;;16.60;99.90;;;;;;5004248;28;19985;-71
2023/08/01 09:35:40;;;;;;;;;;;16.60;99.90;;;;;;4995048;28;19936;-72
2023/08/01 09:38:06;;;;;;;;;;;16.60;99.90;;;;;;5003795;28;19993;-72
2023/08/01 09:40:38;;;;;;;;;;;16.60;99.90;;;;;;5003194;28;19921;-71
2023/08/01 09:43:05;;;;;;;;;;;16.60;99.90;;;;;;5004085;28;19984;-71
2023/08/01 09:45:31;;;;;;;;;;;16.70;99.90;;;;;;5004069;28;20297;-71
2023/08/01 09:47:58;;;;;;;;;;;16.70;99.90;;;;;;5007604;28;19928;-71
2023/08/01 09:50:25;;;;;;;;;;;16.70;99.90;;;;;;5006942;28;20228;-71
2023/08/01 09:52:53;;;;;;;;;;;16.80;99.90;;;;;;4999941;28;19968;-71
2023/08/01 09:55:22;;;;;;;;;;;16.80;99.90;;;;;;5004812;28;19961;-71
2023/08/01 09:57:51;;;;;;;;;;;16.90;99.90;;;;;;5007453;28;20265;-71
2023/08/01 10:00:18;;;;;;;;;;;17.00;99.90;;;;;;5006617;28;19957;-71
2023/08/01 10:02:45;;;;;;;;;;;17.00;99.90;;;;;;5007651;28;19988;-71
2023/08/01 10:05:12;;;;;;;;;;;17.00;99.90;;;;;;5007227;28;19990;-71
2023/08/01 10:07:39;;;;;;;;;;;17.00;99.90;;;;;;5002270;28;19957;-70
2023/08/01 10:10:07;;;;;;;;;;;17.00;99.90;;;;;;4987117;28;19922;-73
2023/08/01 10:12:34;;;;;;;;;;;16.90;99.90;;;;;;4988086;28;20099;-71
2023/08/01 10:15:04;;;;;;;;;;;17.00;99.90;;;;;;4987610;28;19973;-71
2023/08/01 10:17:32;;;;;;;;;;;16.90;99.90;;;;;;4987885;28;19942;-71
2023/08/01 10:19:58;;;;;;;;;;;16.90;99.90;;;;;;4987202;28;19933;-70
2023/08/01 10:22:25;;;;;;;;;;;17.00;99.90;;;;;;4987745;28;19981;-70
2023/08/01 10:24:53;;;;;;;;;;;16.90;99.90;;;;;;4987230;28;19985;-71
2023/08/01 10:27:20;;;;;;;;;;;16.90;99.90;;;;;;4987560;28;19989;-69
2023/08/01 10:29:56;;;;;;;;;;;16.90;99.90;;;;;;4986652;28;19961;-70
2023/08/01 10:32:30;;;;;;;;;;;17.00;99.90;;;;;;4987576;28;19961;-70
2023/08/01 10:34:56;;;;;;;;;;;17.10;99.90;;;;;;4987178;28;19957;-70
2023/08/01 10:37:22;;;;;;;;;;;17.10;99.90;;;;;;4987324;28;19925;-72
2023/08/01 10:39:56;;;;;;;;;;;17.20;99.90;;;;;;4986861;28;19984;-71
2023/08/01 10:42:23;;;;;;;;;;;17.20;99.90;;;;;;4993760;28;19980;-70
2023/08/01 10:44:50;;;;;;;;;;;17.20;99.90;;;;;;4996955;28;19985;-70
2023/08/01 10:47:25;;;;;;;;;;;17.30;99.90;;;;;;4987093;28;20150;-70
2023/08/01 10:49:53;;;;;;;;;;;17.30;99.90;;;;;;4986583;28;20166;-70
2023/08/01 10:52:23;;;;;;;;;;;17.40;99.90;;;;;;4986895;28;19958;-70
2023/08/01 10:54:56;;;;;;;;;;;17.50;99.90;;;;;;4993537;28;20244;-70
2023/08/01 10:57:24;;;;;;;;;;;17.70;99.90;;;;;;5006049;28;20253;-70
2023/08/01 10:59:51;;;;;;;;;;;17.80;99.90;;;;;;5005295;28;19976;-71
2023/08/01 11:02:20;;;;;;;;;;;17.90;99.90;;;;;;5006540;28;19984;-70
2023/08/01 11:04:56;;;;;;;;;;;18.00;99.90;;;;;;5006385;28;19964;-70
2023/08/01 11:07:23;;;;;;;;;;;18.10;99.90;;;;;;5006182;28;19957;-70
2023/08/01 11:09:50;;;;;;;;;;;18.10;99.90;;;;;;5004967;28;19949;-70
2023/08/01 11:12:16;;;;;;;;;;;18.10;99.90;;;;;;5006272;28;20090;-70
2023/08/01 11:14:43;;;;;;;;;;;18.10;99.90;;;;;;5005750;28;19980;-70
2023/08/01 11:17:10;;;;;;;;;;;18.10;99.90;;;;;;5006090;28;19922;-70
2023/08/01 11:19:36;;;;;;;;;;;18.10;99.90;;;;;;5005399;28;20182;-70
2023/08/01 11:22:10;;;;;;;;;;;18.10;99.90;;;;;;5006147;28;20142;-69
2023/08/01 11:24:36;;;;;;;;;;;18.20;99.90;;;;;;5006067;28;19984;-71
2023/08/01 11:27:03;;;;;;;;;;;18.30;99.90;;;;;;5005812;28;19922;-70
2023/08/01 11:29:29;;;;;;;;;;;18.40;99.90;;;;;;5004991;28;19921;-70
2023/08/01 11:31:57;;;;;;;;;;;18.50;99.90;;;;;;5005491;28;20206;-70
2023/08/01 11:34:24;;;;;;;;;;;18.50;99.90;;;;;;5005572;28;19964;-70
2023/08/01 11:36:50;;;;;;;;;;;18.50;99.90;;;;;;5005326;28;19984;-69
2023/08/01 11:39:19;;;;;;;;;;;18.60;99.90;;;;;;5004874;28;19992;-70
2023/08/01 11:41:45;;;;;;;;;;;18.70;99.90;;;;;;5005343;28;19922;-70
2023/08/01 11:44:12;;;;;;;;;;;18.70;99.90;;;;;;4994768;28;19986;-70
2023/08/01 11:46:39;;;;;;;;;;;18.70;99.90;;;;;;4985718;28;19968;-70
2023/08/01 11:49:06;;;;;;;;;;;18.80;99.90;;;;;;4985462;28;19945;-70
2023/08/01 11:51:39;;;;;;;;;;;18.90;99.90;;;;;;4985582;28;19922;-70
2023/08/01 11:54:07;;;;;;;;;;;19.10;99.90;;;;;;4985751;28;20210;-70
2023/08/01 11:56:35;;;;;;;;;;;19.30;99.90;;;;;;4985643;28;19930;-69
2023/08/01 11:59:08;;;;;;;;;;;19.60;99.90;;;;;;4985948;28;19957;-70
2023/08/01 12:01:38;;;;;;;;;;;19.80;99.90;;;;;;4985380;28;19985;-70
2023/08/01 12:04:05;;;;;;;;;;;20.10;99.90;;;;;;4985712;28;20146;-69
2023/08/01 12:06:32;;;;;;;;;;;20.20;99.90;;;;;;4985134;28;19929;-71
2023/08/01 12:09:06;;;;;;;;;;;20.20;99.90;;;;;;4985498;28;19981;-70
2023/08/01 12:11:34;;;;;;;;;;;20.10;99.90;;;;;;4984653;28;19989;-69
2023/08/01 12:14:02;;;;;;;;;;;20.00;99.90;;;;;;4987580;28;19981;-71
2023/08/01 12:16:28;;;;;;;;;;;19.80;99.90;;;;;;5004487;28;19929;-69
2023/08/01 12:18:55;;;;;;;;;;;19.80;99.90;;;;;;5004439;28;19964;-69
2023/08/01 12:21:22;;;;;;;;;;;19.50;99.90;;;;;;5003846;28;20229;-70
2023/08/01 12:23:49;;;;;;;;;;;19.40;99.90;;;;;;5004957;28;19984;-70
2023/08/01 12:26:15;;;;;;;;;;;19.30;99.90;;;;;;5004914;28;19985;-70
2023/08/01 12:28:43;;;;;;;;;;;19.20;99.90;;;;;;5004450;28;20231;-70
2023/08/01 12:31:10;;;;;;;;;;;19.10;99.90;;;;;;5004034;28;19928;-70
2023/08/01 12:33:36;;;;;;;;;;;19.00;99.90;;;;;;5004639;28;20157;-69
2023/08/01 12:36:04;;;;;;;;;;;18.80;99.90;;;;;;5004206;28;19922;-69
2023/08/01 12:38:30;;;;;;;;;;;18.80;99.90;;;;;;5004607;28;19944;-70
2023/08/01 12:40:57;;;;;;;;;;;18.60;99.90;;;;;;5003978;28;19985;-71
2023/08/01 12:43:24;;;;;;;;;;;18.10;99.90;;;;;;5004783;28;19922;-71
2023/08/01 12:45:51;;;;;;;;;;;17.60;99.90;;;;;;5004711;28;19960;-72
2023/08/01 12:48:18;;;;;;;;;;;17.10;99.90;;;;;;5004396;28;19985;-71
2023/08/01 12:50:46;;;;;;;;;;;16.70;99.90;;;;;;5004034;28;19964;-71
2023/08/01 12:53:12;;;;;;;;;;;16.10;99.90;;;;;;5004667;28;19922;-71
2023/08/01 12:55:43;;;;;;;;;;;15.80;99.90;;;;;;5002026;28;19943;-70
2023/08/01 12:58:10;;;;;;;;;;;15.70;99.90;;;;;;4994303;28;19986;-71
2023/08/01 13:00:36;;;;;;;;;;;15.70;99.90;;;;;;4998851;28;20214;-70
2023/08/01 13:03:04;;;;;;;;;;;15.80;99.90;;;;;;4985074;28;19957;-70
2023/08/01 13:05:31;;;;;;;;;;;16.00;99.90;;;;;;4984954;28;19989;-70
2023/08/01 13:07:57;;;;;;;;;;;16.40;99.90;;;;;;4984675;28;20257;-70
2023/08/01 13:10:24;;;;;;;;;;;16.60;99.90;;;;;;4983978;28;20229;-71
2023/08/01 13:12:51;;;;;;;;;;;16.90;99.90;;;;;;4990520;28;20120;-70
2023/08/01 13:15:17;;;;;;;;;;;17.30;99.90;;;;;;5003926;28;19928;-71
2023/08/01 13:17:44;;;;;;;;;;;17.80;99.90;;;;;;5002685;28;19977;-70
2023/08/01 13:20:13;;;;;;;;;;;18.20;99.90;;;;;;5003457;28;19926;-72
2023/08/01 13:22:39;;;;;;;;;;;18.60;99.90;;;;;;5007781;28;20048;-72
2023/08/01 13:25:06;;;;;;;;;;;19.00;99.90;;;;;;5001183;28;19981;-70
2023/08/01 13:27:35;;;;;;;;;;;19.30;99.90;;;;;;4988714;28;19926;-71
2023/08/01 13:30:01;;;;;;;;;;;19.50;99.90;;;;;;4987878;28;19989;-70
2023/08/01 13:32:28;;;;;;;;;;;19.80;99.90;;;;;;4998785;28;19953;-71
2023/08/01 13:34:54;;;;;;;;;;;19.90;99.90;;;;;;5008031;28;19989;-69
2023/08/01 13:37:22;;;;;;;;;;;20.20;99.90;;;;;;5008111;28;19964;-70
2023/08/01 13:39:49;;;;;;;;;;;20.30;99.90;;;;;;5007012;28;20257;-70
2023/08/01 13:42:16;;;;;;;;;;;20.40;99.90;;;;;;5007943;28;19985;-71
2023/08/01 13:44:42;;;;;;;;;;;20.50;99.90;;;;;;5007550;28;20206;-70
2023/08/01 13:47:09;;;;;;;;;;;20.30;99.90;;;;;;5007742;28;19928;-69
2023/08/01 13:49:35;;;;;;;;;;;20.10;99.90;;;;;;5006844;28;19922;-69
2023/08/01 13:52:03;;;;;;;;;;;19.90;99.90;;;;;;5007747;28;19921;-70
2023/08/01 13:54:33;;;;;;;;;;;19.60;99.90;;;;;;5004872;28;19922;-70
2023/08/01 13:56:59;;;;;;;;;;;19.40;99.90;;;;;;5007072;28;19997;-69
2023/08/01 13:59:26;;;;;;;;;;;19.20;99.90;;;;;;5006833;28;20116;-69
2023/08/01 14:01:59;;;;;;;;;;;19.10;99.90;;;;;;5005135;28;19922;-69
2023/08/01 14:04:25;;;;;;;;;;;19.00;99.90;;;;;;4994156;28;19964;-69
2023/08/01 14:06:52;;;;;;;;;;;19.10;99.90;;;;;;4987634;28;19984;-70
2023/08/01 14:09:18;;;;;;;;;;;19.20;99.90;;;;;;4987040;28;19945;-69
2023/08/01 14:11:46;;;;;;;;;;;19.40;99.90;;;;;;4996108;28;19921;-69
2023/08/01 14:14:13;;;;;;;;;;;19.60;99.90;;;;;;5004275;28;19982;-71
2023/08/01 14:16:40;;;;;;;;;;;19.90;99.90;;;;;;5006996;28;19984;-68